createdAt,value
2019-04-04T00:01:20.235Z,23.10
2019-04-04T00:03:51.524Z,20.02
2019-04-04T00:06:19.882Z,24.10
2019-04-04T00:08:49.099Z,22.25
2019-04-04T00:11:17.651Z,22.45
2019-04-04T00:13:46.220Z,20.02
2019-04-04T00:16:15.910Z,20.27
2019-04-04T00:18:44.880Z,25.48
2019-04-04T00:21:13.414Z,19.27
2019-04-04T00:23:41.986Z,19.40
2019-04-04T00:26:10.781Z,18.62
2019-04-04T00:28:40.137Z,22.77
2019-04-04T00:31:08.724Z,21.48
2019-04-04T00:33:37.275Z,18.62
2019-04-04T00:36:05.934Z,19.62
2019-04-04T00:38:36.039Z,20.35
2019-04-04T00:41:04.654Z,19.23
2019-04-04T00:43:33.309Z,20.85
2019-04-04T00:46:01.890Z,18.77
2019-04-04T00:48:32.196Z,16.37
2019-04-04T00:51:00.724Z,18.27
2019-04-04T00:53:29.265Z,19.35
2019-04-04T00:55:57.740Z,22.37
2019-04-04T00:58:26.759Z,20.52
2019-04-04T01:00:55.512Z,18.95
2019-04-04T01:03:24.106Z,19.05
2019-04-04T01:05:52.679Z,19.12
2019-04-04T01:08:21.185Z,19.85
2019-04-04T01:10:50.227Z,23.15
2019-04-04T01:13:19.135Z,19.67
2019-04-04T01:15:47.676Z,20.48
2019-04-04T01:18:16.329Z,24.70
2019-04-04T01:20:44.939Z,20.50
2019-04-04T01:23:13.560Z,20.65
2019-04-04T01:25:42.134Z,18.15
2019-04-04T01:28:10.906Z,17.15
2019-04-04T01:30:39.474Z,16.52
2019-04-04T01:33:08.014Z,22.42
2019-04-04T01:35:36.624Z,27.82
2019-04-04T01:38:05.236Z,22.07
2019-04-04T01:40:33.913Z,16.25
2019-04-04T01:43:02.692Z,19.32
2019-04-04T01:45:31.239Z,26.20
2019-04-04T01:47:59.783Z,20.30
2019-04-04T01:50:28.388Z,20.80
2019-04-04T01:52:58.828Z,22.37
2019-04-04T01:55:27.225Z,18.30
2019-04-04T01:57:55.761Z,18.98
2019-04-04T02:00:24.291Z,18.82
2019-04-04T02:02:52.788Z,23.62
2019-04-04T02:05:21.353Z,16.65
2019-04-04T02:07:49.900Z,19.85
2019-04-04T02:10:18.408Z,20.85
2019-04-04T02:12:47.294Z,19.65
2019-04-04T02:15:15.899Z,17.55
2019-04-04T02:17:44.512Z,21.42
2019-04-04T02:20:13.350Z,20.37
2019-04-04T02:22:41.879Z,16.48
2019-04-04T02:25:10.718Z,18.12
2019-04-04T02:27:39.333Z,16.73
2019-04-04T02:30:09.002Z,19.27
2019-04-04T02:32:37.531Z,18.77
2019-04-04T02:35:11.779Z,22.67
2019-04-04T02:37:40.553Z,16.40
2019-04-04T02:40:10.085Z,20.88
2019-04-04T02:42:39.362Z,18.82
2019-04-04T02:45:08.535Z,13.75
2019-04-04T02:47:37.076Z,19.70
2019-04-04T02:50:07.736Z,20.23
2019-04-04T02:52:36.307Z,16.30
2019-04-04T02:55:05.981Z,16.35
2019-04-04T02:57:34.587Z,18.27
2019-04-04T03:00:04.297Z,24.60
2019-04-04T03:02:36.188Z,16.75
2019-04-04T03:05:03.720Z,21.75
2019-04-04T03:07:32.370Z,15.53
2019-04-04T03:10:01.408Z,17.50
2019-04-04T03:12:29.984Z,15.03
2019-04-04T03:14:58.563Z,18.48
2019-04-04T03:17:31.676Z,16.82
2019-04-04T03:19:57.382Z,18.77
2019-04-04T03:22:27.491Z,26.62
2019-04-04T03:24:56.174Z,19.32
2019-04-04T03:27:26.772Z,21.25
2019-04-04T03:29:54.982Z,21.27
2019-04-04T03:32:23.576Z,19.77
2019-04-04T03:34:52.147Z,18.45
2019-04-04T03:37:21.594Z,18.95
2019-04-04T03:39:53.105Z,22.80
2019-04-04T03:42:20.446Z,15.93
2019-04-04T03:44:52.828Z,20.23
2019-04-04T03:47:19.200Z,17.87
2019-04-04T03:49:47.799Z,20.15
2019-04-04T03:52:16.351Z,22.00
2019-04-04T03:54:44.887Z,17.73
2019-04-04T03:57:13.429Z,21.23
2019-04-04T03:59:41.964Z,16.67
2019-04-04T04:02:10.542Z,14.93
2019-04-04T04:04:39.467Z,16.57
2019-04-04T04:07:08.092Z,18.10
2019-04-04T04:09:36.664Z,20.02
2019-04-04T04:12:07.796Z,18.27
2019-04-04T04:14:35.421Z,19.75
2019-04-04T04:17:04.017Z,21.68
2019-04-04T04:19:32.579Z,20.10
2019-04-04T04:22:01.092Z,19.67
2019-04-04T04:24:30.446Z,26.23
2019-04-04T04:26:59.210Z,24.43
2019-04-04T04:29:29.993Z,22.30
2019-04-04T04:31:58.016Z,21.17
2019-04-04T04:34:26.627Z,21.20
2019-04-04T04:36:55.221Z,23.47
2019-04-04T04:39:23.735Z,18.57
2019-04-04T04:41:54.299Z,19.15
2019-04-04T04:44:22.552Z,17.50
2019-04-04T04:46:51.266Z,25.82
2019-04-04T04:49:23.207Z,33.60
2019-04-04T04:51:50.148Z,22.48
2019-04-04T04:54:20.443Z,18.20
2019-04-04T04:56:48.903Z,21.35
2019-04-04T04:59:17.448Z,22.22
2019-04-04T05:01:45.991Z,21.27
2019-04-04T05:04:14.580Z,22.15
2019-04-04T05:06:43.149Z,18.20
2019-04-04T05:09:13.656Z,19.77
2019-04-04T05:11:41.914Z,18.60
2019-04-04T05:14:10.459Z,22.27
2019-04-04T05:16:39.048Z,21.07
2019-04-04T05:19:07.621Z,22.05
2019-04-04T05:21:37.185Z,25.17
2019-04-04T05:24:06.836Z,18.95
2019-04-04T05:26:38.357Z,19.55
2019-04-04T05:29:05.644Z,25.37
2019-04-04T05:31:34.220Z,22.80
2019-04-04T05:34:03.383Z,20.48
2019-04-04T05:36:31.968Z,25.72
2019-04-04T05:39:00.646Z,25.43
2019-04-04T05:41:29.190Z,20.27
2019-04-04T05:43:57.743Z,21.52
2019-04-04T05:46:26.334Z,23.98
2019-04-04T05:48:55.104Z,24.45
2019-04-04T05:51:23.616Z,18.12
2019-04-04T05:53:52.188Z,23.87
2019-04-04T05:56:21.168Z,19.87
2019-04-04T05:58:52.950Z,24.70
2019-04-04T06:01:22.795Z,18.80
2019-04-04T06:03:51.405Z,19.35
2019-04-04T06:06:19.988Z,18.10
2019-04-04T06:08:49.016Z,20.48
2019-04-04T06:11:20.855Z,16.80
2019-04-04T06:13:47.845Z,16.87
2019-04-04T06:16:17.414Z,17.48
2019-04-04T06:18:49.056Z,20.02
2019-04-04T06:21:18.518Z,22.55
2019-04-04T06:23:46.416Z,21.93
2019-04-04T06:26:14.999Z,21.15
2019-04-04T06:28:44.480Z,26.70
2019-04-04T06:31:13.854Z,24.12
2019-04-04T06:33:42.473Z,21.35
2019-04-04T06:36:11.016Z,27.73
2019-04-04T06:38:40.488Z,17.95
2019-04-04T06:41:09.000Z,21.68
2019-04-04T06:43:37.574Z,23.30
2019-04-04T06:46:06.115Z,30.57
2019-04-04T06:48:34.728Z,21.17
2019-04-04T06:51:03.325Z,20.75
2019-04-04T06:53:31.897Z,27.40
2019-04-04T06:56:01.022Z,25.90
2019-04-04T06:58:29.667Z,21.90
2019-04-04T07:00:58.234Z,20.45
2019-04-04T07:03:27.912Z,22.65
2019-04-04T07:05:57.174Z,35.73
2019-04-04T07:08:25.677Z,28.32
2019-04-04T07:10:58.154Z,24.67
2019-04-04T07:13:27.998Z,23.22
2019-04-04T07:16:06.032Z,22.98
2019-04-04T07:18:25.879Z,24.63
2019-04-04T07:20:54.405Z,20.12
2019-04-04T07:23:22.915Z,24.60
2019-04-04T07:25:53.481Z,22.10
2019-04-04T07:28:21.714Z,22.15
2019-04-04T07:30:54.366Z,25.77
2019-04-04T07:33:21.599Z,19.85
2019-04-04T07:35:50.238Z,25.17
2019-04-04T07:38:18.836Z,21.97
2019-04-04T07:40:47.432Z,20.97
2019-04-04T07:43:18.918Z,21.97
2019-04-04T07:45:46.563Z,21.52
2019-04-04T07:48:17.651Z,27.07
2019-04-04T07:50:45.425Z,27.15
2019-04-04T07:53:14.008Z,31.70
2019-04-04T07:55:42.928Z,28.47
2019-04-04T07:58:11.581Z,22.30
2019-04-04T08:00:40.333Z,19.48
2019-04-04T08:03:08.933Z,21.30
2019-04-04T08:05:37.504Z,21.20
2019-04-04T08:08:06.091Z,27.52
2019-04-04T08:10:34.701Z,24.50
2019-04-04T08:13:07.261Z,26.85
2019-04-04T08:15:36.019Z,22.87
2019-04-04T08:18:06.292Z,20.20
2019-04-04T08:20:34.786Z,25.65
2019-04-04T08:23:03.352Z,20.80
2019-04-04T08:25:31.999Z,24.95
2019-04-04T08:28:00.594Z,20.40
2019-04-04T08:30:29.195Z,24.77
2019-04-04T08:32:57.866Z,18.82
2019-04-04T08:35:26.402Z,20.88
2019-04-04T08:37:55.019Z,22.40
2019-04-04T08:40:23.601Z,21.48
2019-04-04T08:42:52.206Z,19.25
2019-04-04T08:45:20.739Z,21.15
2019-04-04T08:47:49.728Z,20.50
2019-04-04T08:50:18.296Z,21.37
2019-04-04T08:52:46.839Z,22.55
2019-04-04T08:55:15.459Z,28.07
2019-04-04T08:57:44.003Z,25.25
2019-04-04T09:00:13.163Z,21.40
2019-04-04T09:02:41.835Z,20.72
2019-04-04T09:05:12.313Z,20.05
2019-04-04T09:07:41.013Z,24.07
2019-04-04T09:10:10.276Z,23.27
2019-04-04T09:12:38.849Z,21.20
2019-04-04T09:15:08.944Z,21.40
2019-04-04T09:17:37.943Z,21.10
2019-04-04T09:20:09.577Z,25.62
2019-04-04T09:22:40.883Z,29.27
2019-04-04T09:25:10.626Z,22.58
2019-04-04T09:27:39.932Z,27.30
2019-04-04T09:30:10.148Z,24.95
2019-04-04T09:32:38.863Z,23.87
2019-04-04T09:35:08.683Z,21.60
2019-04-04T09:37:37.438Z,23.12
2019-04-04T09:40:07.791Z,28.25
2019-04-04T09:42:36.375Z,19.27
2019-04-04T09:45:09.684Z,23.40
2019-04-04T09:47:38.415Z,22.20
2019-04-04T09:50:10.255Z,21.87
2019-04-04T09:52:38.808Z,19.67
2019-04-04T09:55:08.754Z,17.98
2019-04-04T09:57:37.417Z,23.38
2019-04-04T10:00:14.129Z,23.67
2019-04-04T10:02:43.244Z,24.90
2019-04-04T10:05:12.484Z,26.33
2019-04-04T10:07:41.103Z,18.50
2019-04-04T10:10:12.031Z,24.40
2019-04-04T10:12:40.601Z,26.55
2019-04-04T10:15:10.362Z,22.52
2019-04-04T10:17:39.070Z,25.75
2019-04-04T10:20:07.996Z,25.95
2019-04-04T10:22:36.577Z,27.45
2019-04-04T10:25:06.126Z,20.85
2019-04-04T10:27:34.641Z,22.02
2019-04-04T10:30:04.585Z,21.02
2019-04-04T10:32:33.178Z,26.10
2019-04-04T10:35:01.707Z,19.42
2019-04-04T10:37:30.214Z,20.05
2019-04-04T10:39:58.793Z,20.27
2019-04-04T10:42:27.342Z,23.42
2019-04-04T10:44:55.962Z,21.07
2019-04-04T10:47:24.507Z,21.57
2019-04-04T10:49:53.167Z,24.77
2019-04-04T10:52:21.861Z,26.80
2019-04-04T10:54:50.398Z,21.40
2019-04-04T10:57:19.050Z,21.52
2019-04-04T10:59:47.633Z,24.75
2019-04-04T11:02:16.209Z,22.90
2019-04-04T11:04:44.789Z,22.87
2019-04-04T11:07:13.489Z,21.17
2019-04-04T11:09:42.487Z,25.20
2019-04-04T11:12:11.336Z,23.98
2019-04-04T11:14:39.953Z,22.32
2019-04-04T11:17:08.508Z,23.67
2019-04-04T11:19:36.987Z,25.95
2019-04-04T11:22:05.657Z,27.82
2019-04-04T11:24:34.310Z,23.27
2019-04-04T11:27:02.876Z,23.98
2019-04-04T11:29:31.448Z,26.17
2019-04-04T11:31:59.991Z,21.57
2019-04-04T11:34:28.475Z,25.95
2019-04-04T11:36:57.162Z,21.02
2019-04-04T11:39:26.705Z,22.17
2019-04-04T11:41:55.289Z,20.55
2019-04-04T11:44:23.907Z,31.90
2019-04-04T11:46:52.424Z,28.52
2019-04-04T11:49:21.331Z,25.50
2019-04-04T11:51:50.288Z,24.32
2019-04-04T11:54:18.901Z,24.43
2019-04-04T11:56:47.431Z,21.40
2019-04-04T11:59:16.055Z,28.40
2019-04-04T12:01:46.280Z,23.77
2019-04-04T12:04:14.883Z,19.23
2019-04-04T12:06:43.540Z,27.00
2019-04-04T12:09:12.084Z,26.25
2019-04-04T12:11:40.656Z,32.40
2019-04-04T12:14:09.290Z,26.27
2019-04-04T12:16:37.835Z,30.23
2019-04-04T12:19:06.342Z,34.53
2019-04-04T12:21:34.930Z,24.18
2019-04-04T12:24:03.471Z,26.97
2019-04-04T12:26:32.087Z,24.55
2019-04-04T12:29:00.694Z,27.27
2019-04-04T12:31:29.178Z,30.72
2019-04-04T12:33:57.733Z,23.80
2019-04-04T12:36:26.330Z,23.73
2019-04-04T12:38:54.905Z,29.00
2019-04-04T12:41:23.460Z,28.42
2019-04-04T12:43:52.062Z,27.85
2019-04-04T12:46:20.631Z,28.42
2019-04-04T12:48:49.209Z,28.15
2019-04-04T12:51:17.779Z,23.12
2019-04-04T12:53:46.365Z,29.70
2019-04-04T12:56:15.021Z,28.05
2019-04-04T12:58:43.610Z,29.52
2019-04-04T13:01:12.205Z,27.60
2019-04-04T13:03:40.907Z,29.77
2019-04-04T13:06:09.522Z,25.35
2019-04-04T13:08:38.099Z,25.20
2019-04-04T13:11:06.670Z,27.93
2019-04-04T13:13:37.990Z,25.50
2019-04-04T13:16:05.730Z,32.15
2019-04-04T13:18:34.263Z,27.77
2019-04-04T13:21:02.845Z,30.88
2019-04-04T13:23:31.395Z,24.12
2019-04-04T13:25:59.986Z,30.30
2019-04-04T13:28:29.100Z,26.73
2019-04-04T13:30:57.584Z,25.45
2019-04-04T13:33:26.146Z,24.15
2019-04-04T13:35:54.754Z,22.32
2019-04-04T13:38:23.355Z,27.73
2019-04-04T13:40:51.881Z,30.95
2019-04-04T13:43:22.664Z,21.95
2019-04-04T13:45:50.774Z,23.42
2019-04-04T13:48:19.293Z,24.77
2019-04-04T13:50:48.208Z,32.58
2019-04-04T13:53:16.805Z,25.68
2019-04-04T13:55:45.374Z,30.88
2019-04-04T13:58:14.041Z,30.50
2019-04-04T14:00:42.618Z,23.15
2019-04-04T14:03:11.196Z,25.23
2019-04-04T14:05:39.783Z,26.17
2019-04-04T14:08:08.400Z,23.42
2019-04-04T14:10:36.940Z,27.67
2019-04-04T14:13:05.705Z,25.97
2019-04-04T14:15:34.258Z,29.75
2019-04-04T14:18:07.724Z,22.80
2019-04-04T14:20:34.769Z,29.72
2019-04-04T14:23:03.332Z,28.87
2019-04-04T14:25:31.884Z,25.15
2019-04-04T14:28:00.456Z,28.07
2019-04-04T14:30:29.032Z,30.85
2019-04-04T14:32:57.594Z,30.50
2019-04-04T14:35:26.362Z,24.07
2019-04-04T14:37:54.864Z,24.70
2019-04-04T14:40:23.564Z,26.07
2019-04-04T14:42:52.093Z,23.92
2019-04-04T14:45:20.640Z,24.27
2019-04-04T14:47:49.223Z,23.25
2019-04-04T14:50:17.805Z,33.42
2019-04-04T14:52:46.356Z,25.62
2019-04-04T14:55:17.707Z,24.90
2019-04-04T14:57:45.175Z,22.37
2019-04-04T15:00:16.042Z,23.05
2019-04-04T15:02:45.005Z,30.30
2019-04-04T15:05:13.612Z,20.60
2019-04-04T15:07:42.234Z,24.70
2019-04-04T15:10:10.814Z,30.08
2019-04-04T15:12:39.392Z,25.15
2019-04-04T15:15:08.528Z,19.25
2019-04-04T15:17:37.364Z,27.13
2019-04-04T15:20:06.990Z,23.85
2019-04-04T15:22:38.459Z,18.75
2019-04-04T15:25:07.513Z,21.15
2019-04-04T15:27:36.190Z,21.75
2019-04-04T15:30:06.637Z,20.40
2019-04-04T15:32:35.452Z,18.05
2019-04-04T15:35:05.873Z,23.60
2019-04-04T15:37:34.413Z,21.97
2019-04-04T15:40:03.065Z,25.20
2019-04-04T15:42:31.651Z,20.88
2019-04-04T15:45:00.195Z,19.40
2019-04-04T15:47:28.780Z,21.35
2019-04-04T15:49:57.373Z,17.25
2019-04-04T15:52:25.909Z,18.90
2019-04-04T15:54:54.536Z,26.42
2019-04-04T15:57:23.114Z,24.67
2019-04-04T15:59:51.710Z,22.98
2019-04-04T16:02:20.340Z,24.10
2019-04-04T16:04:48.941Z,17.50
2019-04-04T16:07:17.691Z,21.73
2019-04-04T16:09:46.279Z,27.93
2019-04-04T16:12:14.835Z,27.93
2019-04-04T16:14:43.383Z,19.40
2019-04-04T16:17:11.903Z,21.70
2019-04-04T16:19:40.488Z,21.17
2019-04-04T16:22:09.036Z,21.62
2019-04-04T16:24:37.532Z,24.72
2019-04-04T16:27:06.180Z,23.18
2019-04-04T16:29:34.741Z,24.23
2019-04-04T16:32:03.396Z,20.90
2019-04-04T16:34:31.978Z,20.97
2019-04-04T16:37:00.518Z,24.85
2019-04-04T16:39:29.207Z,25.45
2019-04-04T16:42:02.584Z,25.57
2019-04-04T16:44:28.033Z,21.87
2019-04-04T16:46:56.645Z,31.00
2019-04-04T16:49:25.264Z,30.82
2019-04-04T16:51:54.038Z,25.97
2019-04-04T16:54:25.646Z,20.72
2019-04-04T16:56:54.422Z,26.02
2019-04-04T16:59:23.348Z,26.33
2019-04-04T17:01:51.988Z,28.55
2019-04-04T17:04:23.084Z,22.27
2019-04-04T17:06:54.478Z,19.32
2019-04-04T17:09:22.181Z,28.75
2019-04-04T17:11:50.780Z,30.10
2019-04-04T17:14:19.386Z,23.85
2019-04-04T17:16:47.979Z,30.68
2019-04-04T17:19:16.546Z,31.25
2019-04-04T17:21:45.143Z,29.55
2019-04-04T17:24:13.953Z,25.77
2019-04-04T17:26:42.601Z,27.35
2019-04-04T17:29:11.138Z,23.60
2019-04-04T17:31:39.993Z,26.75
2019-04-04T17:34:08.750Z,34.03
2019-04-04T17:36:37.853Z,29.10
2019-04-04T17:39:08.725Z,26.17
2019-04-04T17:41:37.578Z,29.77
2019-04-04T17:44:06.640Z,26.23
2019-04-04T17:46:35.504Z,35.90
2019-04-04T17:49:04.461Z,33.63
2019-04-04T17:51:33.056Z,34.92
2019-04-04T17:54:01.614Z,34.08
2019-04-04T17:56:30.538Z,28.75
2019-04-04T17:58:59.842Z,30.37
2019-04-04T18:01:28.366Z,32.17
2019-04-04T18:03:57.063Z,28.67
2019-04-04T18:06:25.609Z,35.75
2019-04-04T18:08:54.302Z,33.00
2019-04-04T18:11:22.897Z,36.73
2019-04-04T18:13:51.473Z,34.33
2019-04-04T18:16:20.075Z,42.08
2019-04-04T18:18:48.722Z,34.95
2019-04-04T18:21:17.263Z,46.30
2019-04-04T18:23:45.778Z,43.70
2019-04-04T18:26:14.382Z,75.28
2019-04-04T18:28:42.981Z,38.73
2019-04-04T18:31:11.563Z,31.97
2019-04-04T18:33:40.163Z,38.65
2019-04-04T18:36:09.327Z,40.48
2019-04-04T18:38:37.995Z,34.90
2019-04-04T18:41:06.650Z,29.07
2019-04-04T18:43:35.235Z,43.80
2019-04-04T18:46:03.898Z,31.02
2019-04-04T18:48:32.510Z,34.38
2019-04-04T18:51:01.068Z,41.30
2019-04-04T18:53:29.684Z,35.35
2019-04-04T18:55:58.255Z,36.40
2019-04-04T18:58:26.798Z,37.95
2019-04-04T19:00:55.907Z,39.92
2019-04-04T19:03:25.518Z,39.60
2019-04-04T19:05:54.163Z,39.15
2019-04-04T19:08:22.850Z,40.40
2019-04-04T19:10:51.455Z,33.88
2019-04-04T19:13:20.027Z,40.63
2019-04-04T19:15:50.604Z,39.30
2019-04-04T19:18:18.852Z,36.83
2019-04-04T19:20:47.391Z,37.90
2019-04-04T19:23:15.995Z,37.70
2019-04-04T19:25:44.604Z,38.67
2019-04-04T19:28:13.310Z,35.23
2019-04-04T19:30:42.294Z,40.20
2019-04-04T19:33:10.852Z,38.10
2019-04-04T19:35:39.426Z,42.60
2019-04-04T19:38:08.086Z,41.05
2019-04-04T19:40:36.764Z,36.20
2019-04-04T19:43:17.179Z,41.05
2019-04-04T19:45:37.285Z,40.75
2019-04-04T19:48:05.940Z,43.78
2019-04-04T19:50:34.526Z,39.65
2019-04-04T19:53:03.258Z,45.98
2019-04-04T19:55:31.869Z,49.18
2019-04-04T19:58:00.448Z,38.92
2019-04-04T20:00:32.018Z,37.55
2019-04-04T20:02:59.563Z,45.55
2019-04-04T20:05:28.118Z,42.53
2019-04-04T20:07:56.688Z,36.63
2019-04-04T20:10:25.496Z,37.38
2019-04-04T20:12:54.043Z,46.88
2019-04-04T20:15:22.551Z,60.80
2019-04-04T20:17:51.611Z,54.70
2019-04-04T20:20:20.158Z,42.80
2019-04-04T20:22:52.102Z,39.27
2019-04-04T20:25:20.607Z,37.15
2019-04-04T20:27:54.934Z,45.73
2019-04-04T20:30:23.410Z,34.67
2019-04-04T20:32:55.825Z,36.23
2019-04-04T20:35:26.794Z,34.33
2019-04-04T20:37:55.926Z,40.50
2019-04-04T20:40:24.402Z,31.97
2019-04-04T20:42:52.939Z,34.13
2019-04-04T20:45:21.539Z,36.63
2019-04-04T20:47:50.110Z,29.15
2019-04-04T20:50:18.695Z,37.78
2019-04-04T20:52:47.296Z,36.98
2019-04-04T20:55:15.858Z,41.08
2019-04-04T20:57:44.429Z,40.80
2019-04-04T21:00:13.363Z,36.73
2019-04-04T21:02:41.966Z,34.50
2019-04-04T21:05:10.615Z,38.30
2019-04-04T21:07:39.271Z,36.30
2019-04-04T21:10:08.763Z,27.70
2019-04-04T21:12:37.357Z,32.70
2019-04-04T21:15:07.919Z,34.48
2019-04-04T21:17:36.529Z,34.08
2019-04-04T21:20:06.695Z,29.02
2019-04-04T21:22:35.304Z,31.52
2019-04-04T21:25:04.603Z,32.40
2019-04-04T21:27:33.155Z,35.50
2019-04-04T21:30:01.907Z,28.25
2019-04-04T21:32:30.554Z,33.73
2019-04-04T21:34:59.099Z,32.73
2019-04-04T21:37:27.718Z,27.77
2019-04-04T21:39:56.262Z,27.00
2019-04-04T21:42:24.798Z,28.55
2019-04-04T21:44:55.049Z,30.55
2019-04-04T21:47:23.616Z,28.07
2019-04-04T21:49:52.154Z,29.72
2019-04-04T21:52:22.300Z,27.50
2019-04-04T21:54:52.491Z,28.83
2019-04-04T21:57:21.024Z,27.32
2019-04-04T21:59:49.630Z,24.12
2019-04-04T22:02:18.236Z,29.55
2019-04-04T22:04:46.864Z,36.13
2019-04-04T22:07:15.904Z,32.30
2019-04-04T22:09:44.447Z,41.85
2019-04-04T22:12:13.086Z,31.35
2019-04-04T22:14:41.634Z,27.62
2019-04-04T22:17:10.176Z,32.55
2019-04-04T22:19:38.740Z,30.48
2019-04-04T22:22:07.351Z,30.88
2019-04-04T22:24:35.931Z,28.73
2019-04-04T22:27:05.921Z,29.95
2019-04-04T22:29:34.498Z,28.10
2019-04-04T22:32:03.061Z,33.20
2019-04-04T22:34:31.670Z,31.33
2019-04-04T22:37:00.211Z,28.80
2019-04-04T22:39:28.820Z,30.72
2019-04-04T22:41:57.399Z,37.17
2019-04-04T22:44:34.522Z,30.92
2019-04-04T22:46:56.151Z,32.67
2019-04-04T22:49:24.796Z,35.45
2019-04-04T22:51:53.407Z,33.08
2019-04-04T22:54:21.935Z,34.67
2019-04-04T22:56:50.516Z,35.78
2019-04-04T22:59:19.127Z,29.70
2019-04-04T23:01:47.759Z,35.05
2019-04-04T23:04:16.963Z,46.02
2019-04-04T23:06:45.577Z,32.93
2019-04-04T23:09:15.093Z,30.90
2019-04-04T23:11:43.720Z,39.60
2019-04-04T23:14:12.331Z,25.70
2019-04-04T23:16:40.892Z,31.50
2019-04-04T23:19:09.425Z,35.00
2019-04-04T23:21:38.027Z,32.78
2019-04-04T23:24:06.611Z,33.02
2019-04-04T23:26:35.145Z,35.30
2019-04-04T23:29:03.877Z,31.27
2019-04-04T23:31:32.432Z,35.43
2019-04-04T23:34:00.970Z,30.88
2019-04-04T23:36:35.226Z,26.57
2019-04-04T23:38:59.721Z,31.30
2019-04-04T23:41:28.303Z,28.30
2019-04-04T23:43:56.887Z,30.70
2019-04-04T23:46:25.359Z,32.35
2019-04-04T23:48:53.936Z,33.65
2019-04-04T23:51:22.508Z,24.82
2019-04-04T23:53:51.090Z,26.40
2019-04-04T23:56:19.659Z,30.10
2019-04-04T23:58:48.219Z,34.30
